sensor_id;sensor_type;location;lat;lon;timestamp;P1;durP1;ratioP1;P2;durP2;ratioP2
14665;SDS011;7420;53.574;10.040;2022-09-21T00:01:42;8.10;;;5.10;;
14665;SDS011;7420;53.574;10.040;2022-09-21T00:04:08;9.65;;;5.35;;
14665;SDS011;7420;53.574;10.040;2022-09-21T00:06:34;8.23;;;5.38;;
14665;SDS011;7420;53.574;10.040;2022-09-21T00:09:01;7.65;;;5.30;;
14665;SDS011;7420;53.574;10.040;2022-09-21T00:11:29;10.63;;;5.88;;
14665;SDS011;7420;53.574;10.040;2022-09-21T00:14:03;9.30;;;5.40;;
14665;SDS011;7420;53.574;10.040;2022-09-21T00:16:34;10.27;;;4.97;;
14665;SDS011;7420;53.574;10.040;2022-09-21T00:19:00;9.23;;;4.93;;
14665;SDS011;7420;53.574;10.040;2022-09-21T00:21:25;12.23;;;4.13;;
14665;SDS011;7420;53.574;10.040;2022-09-21T00:23:51;8.65;;;4.95;;
14665;SDS011;7420;53.574;10.040;2022-09-21T00:26:19;7.85;;;5.10;;
14665;SDS011;7420;53.574;10.040;2022-09-21T00:28:45;8.65;;;4.97;;
14665;SDS011;7420;53.574;10.040;2022-09-21T00:31:12;14.18;;;6.32;;
14665;SDS011;7420;53.574;10.040;2022-09-21T00:33:39;8.23;;;4.63;;
14665;SDS011;7420;53.574;10.040;2022-09-21T00:36:06;9.63;;;4.78;;
14665;SDS011;7420;53.574;10.040;2022-09-21T00:38:34;13.60;;;5.75;;
14665;SDS011;7420;53.574;10.040;2022-09-21T00:41:00;8.30;;;5.03;;
14665;SDS011;7420;53.574;10.040;2022-09-21T00:43:26;11.32;;;4.80;;
14665;SDS011;7420;53.574;10.040;2022-09-21T00:45:57;7.82;;;4.72;;
14665;SDS011;7420;53.574;10.040;2022-09-21T00:48:26;10.63;;;4.78;;
14665;SDS011;7420;53.574;10.040;2022-09-21T00:50:52;10.93;;;5.20;;
14665;SDS011;7420;53.574;10.040;2022-09-21T00:53:22;10.73;;;5.13;;
14665;SDS011;7420;53.574;10.040;2022-09-21T00:55:49;9.38;;;4.88;;
14665;SDS011;7420;53.574;10.040;2022-09-21T00:58:19;6.57;;;4.40;;
14665;SDS011;7420;53.574;10.040;2022-09-21T01:00:49;11.82;;;4.93;;
14665;SDS011;7420;53.574;10.040;2022-09-21T01:03:14;8.38;;;4.55;;
14665;SDS011;7420;53.574;10.040;2022-09-21T01:05:40;7.90;;;4.45;;
14665;SDS011;7420;53.574;10.040;2022-09-21T01:08:05;7.88;;;4.72;;
14665;SDS011;7420;53.574;10.040;2022-09-21T01:10:46;8.63;;;4.43;;
14665;SDS011;7420;53.574;10.040;2022-09-21T01:13:32;10.45;;;4.65;;
14665;SDS011;7420;53.574;10.040;2022-09-21T01:16:11;7.22;;;5.38;;
14665;SDS011;7420;53.574;10.040;2022-09-21T01:21:35;11.95;;;5.80;;
14665;SDS011;7420;53.574;10.040;2022-09-21T01:24:16;13.90;;;5.20;;
14665;SDS011;7420;53.574;10.040;2022-09-21T01:30:11;8.25;;;4.68;;
14665;SDS011;7420;53.574;10.040;2022-09-21T01:32:53;11.82;;;5.43;;
14665;SDS011;7420;53.574;10.040;2022-09-21T01:37:56;8.70;;;4.90;;
14665;SDS011;7420;53.574;10.040;2022-09-21T01:40:38;7.53;;;5.05;;
14665;SDS011;7420;53.574;10.040;2022-09-21T01:43:06;9.48;;;4.35;;
14665;SDS011;7420;53.574;10.040;2022-09-21T01:45:38;9.77;;;4.80;;
14665;SDS011;7420;53.574;10.040;2022-09-21T01:48:07;13.07;;;4.63;;
14665;SDS011;7420;53.574;10.040;2022-09-21T01:50:55;10.35;;;5.75;;
14665;SDS011;7420;53.574;10.040;2022-09-21T01:53:22;9.95;;;5.07;;
14665;SDS011;7420;53.574;10.040;2022-09-21T01:55:50;9.00;;;4.95;;
14665;SDS011;7420;53.574;10.040;2022-09-21T01:58:22;6.63;;;5.10;;
14665;SDS011;7420;53.574;10.040;2022-09-21T02:00:53;8.70;;;5.13;;
14665;SDS011;7420;53.574;10.040;2022-09-21T02:03:28;9.02;;;5.15;;
14665;SDS011;7420;53.574;10.040;2022-09-21T02:05:58;11.98;;;5.25;;
14665;SDS011;7420;53.574;10.040;2022-09-21T02:08:25;7.90;;;4.95;;
14665;SDS011;7420;53.574;10.040;2022-09-21T02:10:51;12.80;;;5.90;;
14665;SDS011;7420;53.574;10.040;2022-09-21T02:13:18;6.35;;;4.60;;
14665;SDS011;7420;53.574;10.040;2022-09-21T02:15:57;8.70;;;5.47;;
14665;SDS011;7420;53.574;10.040;2022-09-21T02:27:08;10.00;;;5.45;;
14665;SDS011;7420;53.574;10.040;2022-09-21T02:29:40;11.38;;;4.30;;
14665;SDS011;7420;53.574;10.040;2022-09-21T02:32:30;11.65;;;4.90;;
14665;SDS011;7420;53.574;10.040;2022-09-21T02:35:00;8.27;;;4.97;;
14665;SDS011;7420;53.574;10.040;2022-09-21T02:37:40;8.65;;;4.65;;
14665;SDS011;7420;53.574;10.040;2022-09-21T02:42:52;9.82;;;5.38;;
14665;SDS011;7420;53.574;10.040;2022-09-21T02:45:21;8.45;;;4.78;;
14665;SDS011;7420;53.574;10.040;2022-09-21T02:48:07;9.80;;;4.80;;
14665;SDS011;7420;53.574;10.040;2022-09-21T02:53:08;11.23;;;5.53;;
14665;SDS011;7420;53.574;10.040;2022-09-21T02:55:35;9.93;;;5.03;;
14665;SDS011;7420;53.574;10.040;2022-09-21T02:58:02;13.52;;;5.47;;
14665;SDS011;7420;53.574;10.040;2022-09-21T03:00:32;12.95;;;5.20;;
14665;SDS011;7420;53.574;10.040;2022-09-21T03:02:59;9.68;;;5.00;;
14665;SDS011;7420;53.574;10.040;2022-09-21T03:05:24;7.57;;;5.30;;
14665;SDS011;7420;53.574;10.040;2022-09-21T03:07:50;10.20;;;5.80;;
14665;SDS011;7420;53.574;10.040;2022-09-21T03:10:16;9.07;;;5.65;;
14665;SDS011;7420;53.574;10.040;2022-09-21T03:12:43;12.65;;;5.30;;
14665;SDS011;7420;53.574;10.040;2022-09-21T03:15:08;8.88;;;5.57;;
14665;SDS011;7420;53.574;10.040;2022-09-21T03:17:34;10.85;;;6.30;;
14665;SDS011;7420;53.574;10.040;2022-09-21T03:19:59;8.60;;;5.43;;
14665;SDS011;7420;53.574;10.040;2022-09-21T03:22:25;11.45;;;5.40;;
14665;SDS011;7420;53.574;10.040;2022-09-21T03:24:50;10.60;;;5.10;;
14665;SDS011;7420;53.574;10.040;2022-09-21T03:27:18;7.25;;;4.72;;
14665;SDS011;7420;53.574;10.040;2022-09-21T03:29:45;15.90;;;6.57;;
14665;SDS011;7420;53.574;10.040;2022-09-21T03:32:11;10.60;;;5.88;;
14665;SDS011;7420;53.574;10.040;2022-09-21T03:34:37;8.90;;;5.35;;
14665;SDS011;7420;53.574;10.040;2022-09-21T03:37:04;5.97;;;4.72;;
14665;SDS011;7420;53.574;10.040;2022-09-21T03:39:30;9.50;;;5.35;;
14665;SDS011;7420;53.574;10.040;2022-09-21T03:41:55;7.95;;;5.88;;
14665;SDS011;7420;53.574;10.040;2022-09-21T03:44:21;11.55;;;5.32;;
14665;SDS011;7420;53.574;10.040;2022-09-21T03:46:48;8.85;;;4.97;;
14665;SDS011;7420;53.574;10.040;2022-09-21T03:49:14;7.88;;;4.72;;
14665;SDS011;7420;53.574;10.040;2022-09-21T03:51:40;13.25;;;5.18;;
14665;SDS011;7420;53.574;10.040;2022-09-21T03:54:05;9.88;;;5.35;;
14665;SDS011;7420;53.574;10.040;2022-09-21T03:56:30;9.45;;;5.32;;
14665;SDS011;7420;53.574;10.040;2022-09-21T03:58:56;11.05;;;5.20;;
14665;SDS011;7420;53.574;10.040;2022-09-21T04:01:22;11.52;;;5.78;;
14665;SDS011;7420;53.574;10.040;2022-09-21T04:03:47;6.70;;;5.30;;
14665;SDS011;7420;53.574;10.040;2022-09-21T04:06:12;10.85;;;5.95;;
14665;SDS011;7420;53.574;10.040;2022-09-21T04:08:38;10.68;;;6.07;;
14665;SDS011;7420;53.574;10.040;2022-09-21T04:11:14;10.93;;;6.03;;
14665;SDS011;7420;53.574;10.040;2022-09-21T04:13:48;7.88;;;5.53;;
14665;SDS011;7420;53.574;10.040;2022-09-21T04:16:14;8.32;;;5.85;;
14665;SDS011;7420;53.574;10.040;2022-09-21T04:18:41;9.93;;;5.65;;
14665;SDS011;7420;53.574;10.040;2022-09-21T04:21:07;10.57;;;5.75;;
14665;SDS011;7420;53.574;10.040;2022-09-21T04:23:32;11.02;;;5.55;;
14665;SDS011;7420;53.574;10.040;2022-09-21T04:25:57;13.35;;;5.82;;
14665;SDS011;7420;53.574;10.040;2022-09-21T04:28:23;10.68;;;5.93;;
14665;SDS011;7420;53.574;10.040;2022-09-21T04:30:52;14.70;;;6.55;;
14665;SDS011;7420;53.574;10.040;2022-09-21T04:33:19;10.27;;;6.07;;
14665;SDS011;7420;53.574;10.040;2022-09-21T04:35:47;10.93;;;6.10;;
14665;SDS011;7420;53.574;10.040;2022-09-21T04:38:18;7.78;;;5.80;;
14665;SDS011;7420;53.574;10.040;2022-09-21T04:40:44;13.30;;;5.72;;
14665;SDS011;7420;53.574;10.040;2022-09-21T04:43:10;10.60;;;5.57;;
14665;SDS011;7420;53.574;10.040;2022-09-21T04:45:35;12.50;;;5.97;;
14665;SDS011;7420;53.574;10.040;2022-09-21T04:48:00;10.23;;;5.85;;
14665;SDS011;7420;53.574;10.040;2022-09-21T04:50:26;8.38;;;5.80;;
14665;SDS011;7420;53.574;10.040;2022-09-21T04:52:51;13.05;;;6.28;;
14665;SDS011;7420;53.574;10.040;2022-09-21T04:55:17;11.52;;;6.15;;
14665;SDS011;7420;53.574;10.040;2022-09-21T04:57:43;11.45;;;5.93;;
14665;SDS011;7420;53.574;10.040;2022-09-21T05:00:08;8.95;;;5.95;;
14665;SDS011;7420;53.574;10.040;2022-09-21T05:02:34;16.70;;;6.22;;
14665;SDS011;7420;53.574;10.040;2022-09-21T05:05:00;12.60;;;6.90;;
14665;SDS011;7420;53.574;10.040;2022-09-21T05:07:25;10.75;;;6.30;;
14665;SDS011;7420;53.574;10.040;2022-09-21T05:09:50;7.65;;;5.60;;
14665;SDS011;7420;53.574;10.040;2022-09-21T05:12:28;7.50;;;6.10;;
14665;SDS011;7420;53.574;10.040;2022-09-21T05:14:57;10.73;;;5.90;;
14665;SDS011;7420;53.574;10.040;2022-09-21T05:17:23;13.15;;;6.40;;
14665;SDS011;7420;53.574;10.040;2022-09-21T05:19:49;11.27;;;7.05;;
14665;SDS011;7420;53.574;10.040;2022-09-21T05:22:15;10.40;;;6.47;;
14665;SDS011;7420;53.574;10.040;2022-09-21T05:24:40;10.38;;;7.63;;
14665;SDS011;7420;53.574;10.040;2022-09-21T05:27:06;11.60;;;7.43;;
14665;SDS011;7420;53.574;10.040;2022-09-21T05:29:31;12.68;;;8.10;;
14665;SDS011;7420;53.574;10.040;2022-09-21T05:32:10;11.05;;;7.38;;
14665;SDS011;7420;53.574;10.040;2022-09-21T05:40:09;11.20;;;7.15;;
14665;SDS011;7420;53.574;10.040;2022-09-21T05:42:35;11.98;;;7.95;;
14665;SDS011;7420;53.574;10.040;2022-09-21T05:45:01;12.73;;;7.72;;
14665;SDS011;7420;53.574;10.040;2022-09-21T05:53:43;13.02;;;7.22;;
14665;SDS011;7420;53.574;10.040;2022-09-21T05:59:03;11.10;;;7.88;;
14665;SDS011;7420;53.574;10.040;2022-09-21T06:04:34;13.37;;;8.10;;
14665;SDS011;7420;53.574;10.040;2022-09-21T06:07:00;14.27;;;8.50;;
14665;SDS011;7420;53.574;10.040;2022-09-21T06:09:25;15.80;;;9.30;;
14665;SDS011;7420;53.574;10.040;2022-09-21T06:11:51;13.27;;;8.63;;
14665;SDS011;7420;53.574;10.040;2022-09-21T06:14:17;11.32;;;8.15;;
14665;SDS011;7420;53.574;10.040;2022-09-21T06:16:48;15.15;;;8.05;;
14665;SDS011;7420;53.574;10.040;2022-09-21T06:19:14;17.52;;;8.95;;
14665;SDS011;7420;53.574;10.040;2022-09-21T06:21:39;11.93;;;8.38;;
14665;SDS011;7420;53.574;10.040;2022-09-21T06:24:04;15.38;;;8.07;;
14665;SDS011;7420;53.574;10.040;2022-09-21T06:26:30;11.43;;;8.15;;
14665;SDS011;7420;53.574;10.040;2022-09-21T06:28:55;15.60;;;8.38;;
14665;SDS011;7420;53.574;10.040;2022-09-21T06:31:20;15.18;;;9.40;;
14665;SDS011;7420;53.574;10.040;2022-09-21T06:33:46;14.50;;;8.25;;
14665;SDS011;7420;53.574;10.040;2022-09-21T06:36:12;13.82;;;8.68;;
14665;SDS011;7420;53.574;10.040;2022-09-21T06:38:38;14.18;;;9.40;;
14665;SDS011;7420;53.574;10.040;2022-09-21T06:41:04;13.35;;;9.13;;
14665;SDS011;7420;53.574;10.040;2022-09-21T06:43:29;14.55;;;9.45;;
14665;SDS011;7420;53.574;10.040;2022-09-21T06:45:56;16.05;;;9.75;;
14665;SDS011;7420;53.574;10.040;2022-09-21T06:48:23;15.13;;;9.52;;
14665;SDS011;7420;53.574;10.040;2022-09-21T06:50:49;13.40;;;9.57;;
14665;SDS011;7420;53.574;10.040;2022-09-21T06:53:15;16.65;;;11.77;;
14665;SDS011;7420;53.574;10.040;2022-09-21T06:55:41;13.73;;;10.68;;
14665;SDS011;7420;53.574;10.040;2022-09-21T06:58:06;20.50;;;10.65;;
14665;SDS011;7420;53.574;10.040;2022-09-21T07:00:32;16.73;;;10.70;;
14665;SDS011;7420;53.574;10.040;2022-09-21T07:02:57;13.98;;;9.82;;
14665;SDS011;7420;53.574;10.040;2022-09-21T07:05:23;14.60;;;10.57;;
14665;SDS011;7420;53.574;10.040;2022-09-21T07:07:48;14.45;;;9.60;;
14665;SDS011;7420;53.574;10.040;2022-09-21T07:10:14;20.95;;;11.07;;
14665;SDS011;7420;53.574;10.040;2022-09-21T07:12:39;21.60;;;9.93;;
14665;SDS011;7420;53.574;10.040;2022-09-21T07:15:05;21.75;;;10.05;;
14665;SDS011;7420;53.574;10.040;2022-09-21T07:17:36;18.48;;;10.88;;
14665;SDS011;7420;53.574;10.040;2022-09-21T07:20:02;16.10;;;9.52;;
14665;SDS011;7420;53.574;10.040;2022-09-21T07:22:29;17.02;;;10.73;;
14665;SDS011;7420;53.574;10.040;2022-09-21T07:24:55;18.52;;;10.27;;
14665;SDS011;7420;53.574;10.040;2022-09-21T07:27:22;25.10;;;10.52;;
14665;SDS011;7420;53.574;10.040;2022-09-21T07:29:48;16.83;;;10.98;;
14665;SDS011;7420;53.574;10.040;2022-09-21T07:32:13;17.17;;;11.25;;
14665;SDS011;7420;53.574;10.040;2022-09-21T07:34:39;18.88;;;10.82;;
14665;SDS011;7420;53.574;10.040;2022-09-21T07:37:04;20.17;;;10.93;;
14665;SDS011;7420;53.574;10.040;2022-09-21T07:39:29;20.45;;;10.23;;
14665;SDS011;7420;53.574;10.040;2022-09-21T07:41:55;14.50;;;9.82;;
14665;SDS011;7420;53.574;10.040;2022-09-21T07:44:22;18.30;;;10.65;;
14665;SDS011;7420;53.574;10.040;2022-09-21T07:46:48;18.83;;;10.05;;
14665;SDS011;7420;53.574;10.040;2022-09-21T07:49:13;16.33;;;9.30;;
14665;SDS011;7420;53.574;10.040;2022-09-21T07:51:39;13.68;;;9.85;;
14665;SDS011;7420;53.574;10.040;2022-09-21T07:54:04;18.05;;;10.32;;
14665;SDS011;7420;53.574;10.040;2022-09-21T07:56:30;17.73;;;10.25;;
14665;SDS011;7420;53.574;10.040;2022-09-21T07:58:55;12.68;;;8.55;;
14665;SDS011;7420;53.574;10.040;2022-09-21T08:01:30;11.82;;;7.97;;
14665;SDS011;7420;53.574;10.040;2022-09-21T08:03:57;10.98;;;8.05;;
14665;SDS011;7420;53.574;10.040;2022-09-21T08:06:23;15.35;;;9.35;;
14665;SDS011;7420;53.574;10.040;2022-09-21T08:08:50;15.80;;;8.32;;
14665;SDS011;7420;53.574;10.040;2022-09-21T08:11:17;13.90;;;8.30;;
14665;SDS011;7420;53.574;10.040;2022-09-21T08:13:45;13.73;;;8.43;;
14665;SDS011;7420;53.574;10.040;2022-09-21T08:16:11;12.30;;;7.78;;
14665;SDS011;7420;53.574;10.040;2022-09-21T08:18:37;16.15;;;8.10;;
14665;SDS011;7420;53.574;10.040;2022-09-21T08:21:03;10.25;;;7.63;;
14665;SDS011;7420;53.574;10.040;2022-09-21T08:23:29;16.40;;;7.65;;
14665;SDS011;7420;53.574;10.040;2022-09-21T08:25:58;13.05;;;7.63;;
14665;SDS011;7420;53.574;10.040;2022-09-21T08:28:25;14.75;;;8.50;;
14665;SDS011;7420;53.574;10.040;2022-09-21T08:30:51;13.60;;;9.05;;
14665;SDS011;7420;53.574;10.040;2022-09-21T08:33:16;11.27;;;7.47;;
14665;SDS011;7420;53.574;10.040;2022-09-21T08:35:42;13.10;;;8.00;;
14665;SDS011;7420;53.574;10.040;2022-09-21T08:38:07;14.55;;;8.00;;
14665;SDS011;7420;53.574;10.040;2022-09-21T08:40:32;12.55;;;6.97;;
14665;SDS011;7420;53.574;10.040;2022-09-21T08:43:01;10.50;;;6.47;;
14665;SDS011;7420;53.574;10.040;2022-09-21T08:45:32;11.18;;;6.80;;
14665;SDS011;7420;53.574;10.040;2022-09-21T08:48:04;10.35;;;6.93;;
14665;SDS011;7420;53.574;10.040;2022-09-21T08:50:43;13.05;;;7.97;;
14665;SDS011;7420;53.574;10.040;2022-09-21T08:53:13;11.23;;;7.32;;
14665;SDS011;7420;53.574;10.040;2022-09-21T08:55:42;8.90;;;5.88;;
14665;SDS011;7420;53.574;10.040;2022-09-21T08:58:26;7.35;;;4.88;;
14665;SDS011;7420;53.574;10.040;2022-09-21T09:03:52;11.50;;;5.90;;
14665;SDS011;7420;53.574;10.040;2022-09-21T09:06:27;9.32;;;5.50;;
14665;SDS011;7420;53.574;10.040;2022-09-21T09:09:18;8.90;;;5.10;;
14665;SDS011;7420;53.574;10.040;2022-09-21T09:12:41;7.30;;;4.50;;
14665;SDS011;7420;53.574;10.040;2022-09-21T09:20:42;8.82;;;5.47;;
14665;SDS011;7420;53.574;10.040;2022-09-21T09:23:24;7.97;;;3.42;;
14665;SDS011;7420;53.574;10.040;2022-09-21T09:25:53;5.70;;;2.80;;
14665;SDS011;7420;53.574;10.040;2022-09-21T09:28:44;9.18;;;3.50;;
14665;SDS011;7420;53.574;10.040;2022-09-21T09:36:11;2.63;;;1.75;;
14665;SDS011;7420;53.574;10.040;2022-09-21T09:38:43;5.03;;;2.33;;
14665;SDS011;7420;53.574;10.040;2022-09-21T09:46:36;4.45;;;2.97;;
14665;SDS011;7420;53.574;10.040;2022-09-21T09:54:17;3.70;;;2.17;;
14665;SDS011;7420;53.574;10.040;2022-09-21T09:56:46;6.30;;;2.67;;
14665;SDS011;7420;53.574;10.040;2022-09-21T09:59:16;5.10;;;2.70;;
14665;SDS011;7420;53.574;10.040;2022-09-21T10:01:57;6.03;;;3.00;;
14665;SDS011;7420;53.574;10.040;2022-09-21T10:04:26;5.28;;;3.33;;
14665;SDS011;7420;53.574;10.040;2022-09-21T10:06:52;5.15;;;2.97;;
14665;SDS011;7420;53.574;10.040;2022-09-21T10:09:28;6.57;;;2.58;;
14665;SDS011;7420;53.574;10.040;2022-09-21T10:11:57;5.65;;;2.47;;
14665;SDS011;7420;53.574;10.040;2022-09-21T10:14:26;6.53;;;2.55;;
14665;SDS011;7420;53.574;10.040;2022-09-21T10:16:54;5.28;;;2.83;;
14665;SDS011;7420;53.574;10.040;2022-09-21T10:19:22;5.68;;;2.45;;
14665;SDS011;7420;53.574;10.040;2022-09-21T10:21:58;5.60;;;2.58;;
14665;SDS011;7420;53.574;10.040;2022-09-21T10:24:32;4.45;;;2.80;;
14665;SDS011;7420;53.574;10.040;2022-09-21T10:27:05;4.40;;;3.00;;
14665;SDS011;7420;53.574;10.040;2022-09-21T10:29:41;3.30;;;2.40;;
14665;SDS011;7420;53.574;10.040;2022-09-21T10:34:37;7.25;;;3.00;;
14665;SDS011;7420;53.574;10.040;2022-09-21T10:39:53;5.30;;;2.35;;
14665;SDS011;7420;53.574;10.040;2022-09-21T10:42:19;3.13;;;1.80;;
14665;SDS011;7420;53.574;10.040;2022-09-21T10:49:47;2.22;;;1.50;;
14665;SDS011;7420;53.574;10.040;2022-09-21T10:52:15;3.67;;;1.70;;
14665;SDS011;7420;53.574;10.040;2022-09-21T10:54:43;2.00;;;1.58;;
14665;SDS011;7420;53.574;10.040;2022-09-21T10:57:13;2.15;;;1.33;;
14665;SDS011;7420;53.574;10.040;2022-09-21T10:59:42;2.42;;;1.77;;
14665;SDS011;7420;53.574;10.040;2022-09-21T11:02:33;3.00;;;2.05;;
14665;SDS011;7420;53.574;10.040;2022-09-21T11:07:46;3.30;;;1.45;;
14665;SDS011;7420;53.574;10.040;2022-09-21T11:15:54;2.38;;;1.60;;
14665;SDS011;7420;53.574;10.040;2022-09-21T11:21:32;3.45;;;2.25;;
14665;SDS011;7420;53.574;10.040;2022-09-21T11:29:25;2.13;;;1.45;;
14665;SDS011;7420;53.574;10.040;2022-09-21T11:34:49;2.90;;;1.40;;
14665;SDS011;7420;53.574;10.040;2022-09-21T11:37:35;3.47;;;1.77;;
14665;SDS011;7420;53.574;10.040;2022-09-21T11:40:29;2.00;;;1.30;;
14665;SDS011;7420;53.574;10.040;2022-09-21T11:43:13;1.75;;;1.15;;
14665;SDS011;7420;53.574;10.040;2022-09-21T11:53:39;1.25;;;1.00;;
14665;SDS011;7420;53.574;10.040;2022-09-21T11:56:21;1.52;;;1.10;;
14665;SDS011;7420;53.574;10.040;2022-09-21T12:04:19;2.22;;;1.30;;
14665;SDS011;7420;53.574;10.040;2022-09-21T12:09:45;2.40;;;1.40;;
14665;SDS011;7420;53.574;10.040;2022-09-21T12:14:57;2.50;;;1.30;;
14665;SDS011;7420;53.574;10.040;2022-09-21T12:20:22;2.00;;;1.30;;
14665;SDS011;7420;53.574;10.040;2022-09-21T12:22:59;2.08;;;1.30;;
14665;SDS011;7420;53.574;10.040;2022-09-21T12:25:30;1.98;;;1.35;;
14665;SDS011;7420;53.574;10.040;2022-09-21T12:30:45;4.22;;;1.45;;
14665;SDS011;7420;53.574;10.040;2022-09-21T12:41:08;2.17;;;1.42;;
14665;SDS011;7420;53.574;10.040;2022-09-21T12:44:04;1.55;;;1.30;;
14665;SDS011;7420;53.574;10.040;2022-09-21T12:49:13;2.08;;;1.50;;
14665;SDS011;7420;53.574;10.040;2022-09-21T12:51:47;2.88;;;1.40;;
14665;SDS011;7420;53.574;10.040;2022-09-21T12:54:23;1.63;;;1.20;;
14665;SDS011;7420;53.574;10.040;2022-09-21T12:57:13;1.42;;;1.23;;
14665;SDS011;7420;53.574;10.040;2022-09-21T12:59:49;2.05;;;1.48;;
14665;SDS011;7420;53.574;10.040;2022-09-21T13:02:36;1.73;;;1.45;;
14665;SDS011;7420;53.574;10.040;2022-09-21T13:05:13;1.38;;;1.20;;
14665;SDS011;7420;53.574;10.040;2022-09-21T13:10:37;1.95;;;1.30;;
14665;SDS011;7420;53.574;10.040;2022-09-21T13:13:07;2.70;;;1.20;;
14665;SDS011;7420;53.574;10.040;2022-09-21T13:15:48;1.85;;;1.10;;
14665;SDS011;7420;53.574;10.040;2022-09-21T13:20:46;1.15;;;1.02;;
14665;SDS011;7420;53.574;10.040;2022-09-21T13:23:15;1.02;;;1.00;;
14665;SDS011;7420;53.574;10.040;2022-09-21T13:25:48;1.33;;;1.23;;
14665;SDS011;7420;53.574;10.040;2022-09-21T13:28:22;1.85;;;1.02;;
14665;SDS011;7420;53.574;10.040;2022-09-21T13:36:39;2.65;;;1.40;;
14665;SDS011;7420;53.574;10.040;2022-09-21T13:41:44;2.50;;;1.52;;
14665;SDS011;7420;53.574;10.040;2022-09-21T13:46:44;2.75;;;1.40;;
14665;SDS011;7420;53.574;10.040;2022-09-21T13:49:24;2.15;;;1.40;;
14665;SDS011;7420;53.574;10.040;2022-09-21T13:54:47;3.10;;;1.70;;
14665;SDS011;7420;53.574;10.040;2022-09-21T14:00:04;1.67;;;1.58;;
14665;SDS011;7420;53.574;10.040;2022-09-21T14:02:34;2.58;;;1.60;;
14665;SDS011;7420;53.574;10.040;2022-09-21T14:05:18;3.15;;;1.77;;
14665;SDS011;7420;53.574;10.040;2022-09-21T14:08:17;2.33;;;1.40;;
14665;SDS011;7420;53.574;10.040;2022-09-21T14:10:38;1.70;;;1.30;;
14665;SDS011;7420;53.574;10.040;2022-09-21T14:13:36;3.60;;;2.65;;
14665;SDS011;7420;53.574;10.040;2022-09-21T14:27:01;2.42;;;1.65;;
14665;SDS011;7420;53.574;10.040;2022-09-21T14:32:10;2.72;;;1.73;;
14665;SDS011;7420;53.574;10.040;2022-09-21T14:34:41;2.00;;;1.80;;
14665;SDS011;7420;53.574;10.040;2022-09-21T14:40:19;2.63;;;2.00;;
14665;SDS011;7420;53.574;10.040;2022-09-21T14:42:50;2.35;;;1.42;;
14665;SDS011;7420;53.574;10.040;2022-09-21T14:45:27;2.80;;;1.60;;
14665;SDS011;7420;53.574;10.040;2022-09-21T14:48:29;2.35;;;1.50;;
14665;SDS011;7420;53.574;10.040;2022-09-21T14:51:14;3.40;;;1.90;;
14665;SDS011;7420;53.574;10.040;2022-09-21T14:53:56;2.67;;;1.80;;
14665;SDS011;7420;53.574;10.040;2022-09-21T14:59:44;3.10;;;1.75;;
14665;SDS011;7420;53.574;10.040;2022-09-21T15:02:22;2.30;;;1.70;;
14665;SDS011;7420;53.574;10.040;2022-09-21T15:04:59;3.58;;;1.80;;
14665;SDS011;7420;53.574;10.040;2022-09-21T15:10:44;3.50;;;2.00;;
14665;SDS011;7420;53.574;10.040;2022-09-21T15:18:46;4.13;;;1.90;;
14665;SDS011;7420;53.574;10.040;2022-09-21T15:21:20;3.88;;;2.33;;
14665;SDS011;7420;53.574;10.040;2022-09-21T15:23:51;2.35;;;1.50;;
14665;SDS011;7420;53.574;10.040;2022-09-21T15:26:21;3.08;;;1.80;;
14665;SDS011;7420;53.574;10.040;2022-09-21T15:29:02;3.78;;;1.90;;
14665;SDS011;7420;53.574;10.040;2022-09-21T15:31:32;2.10;;;1.30;;
14665;SDS011;7420;53.574;10.040;2022-09-21T15:34:05;2.78;;;1.50;;
14665;SDS011;7420;53.574;10.040;2022-09-21T15:36:31;3.78;;;1.40;;
14665;SDS011;7420;53.574;10.040;2022-09-21T15:38:59;2.65;;;1.42;;
14665;SDS011;7420;53.574;10.040;2022-09-21T15:41:40;4.20;;;1.85;;
14665;SDS011;7420;53.574;10.040;2022-09-21T15:46:39;3.10;;;2.10;;
14665;SDS011;7420;53.574;10.040;2022-09-21T15:49:11;2.33;;;1.73;;
14665;SDS011;7420;53.574;10.040;2022-09-21T15:51:37;2.92;;;1.80;;
14665;SDS011;7420;53.574;10.040;2022-09-21T15:56:41;1.83;;;1.20;;
14665;SDS011;7420;53.574;10.040;2022-09-21T15:59:10;3.78;;;1.80;;
14665;SDS011;7420;53.574;10.040;2022-09-21T16:01:41;3.05;;;1.50;;
14665;SDS011;7420;53.574;10.040;2022-09-21T16:04:15;3.63;;;1.65;;
14665;SDS011;7420;53.574;10.040;2022-09-21T16:06:44;3.40;;;1.48;;
14665;SDS011;7420;53.574;10.040;2022-09-21T16:11:51;2.63;;;1.30;;
14665;SDS011;7420;53.574;10.040;2022-09-21T16:14:18;3.45;;;1.63;;
14665;SDS011;7420;53.574;10.040;2022-09-21T16:19:42;2.60;;;1.83;;
14665;SDS011;7420;53.574;10.040;2022-09-21T16:22:12;3.45;;;1.60;;
14665;SDS011;7420;53.574;10.040;2022-09-21T16:24:49;1.85;;;1.45;;
14665;SDS011;7420;53.574;10.040;2022-09-21T16:27:22;3.20;;;1.80;;
14665;SDS011;7420;53.574;10.040;2022-09-21T16:29:49;3.65;;;1.58;;
14665;SDS011;7420;53.574;10.040;2022-09-21T16:34:43;3.70;;;1.60;;
14665;SDS011;7420;53.574;10.040;2022-09-21T16:39:44;3.63;;;1.40;;
14665;SDS011;7420;53.574;10.040;2022-09-21T16:42:09;3.67;;;1.40;;
14665;SDS011;7420;53.574;10.040;2022-09-21T16:44:36;3.72;;;1.55;;
14665;SDS011;7420;53.574;10.040;2022-09-21T16:47:10;2.47;;;1.60;;
14665;SDS011;7420;53.574;10.040;2022-09-21T16:49:40;4.28;;;2.22;;
14665;SDS011;7420;53.574;10.040;2022-09-21T16:52:06;3.33;;;1.60;;
14665;SDS011;7420;53.574;10.040;2022-09-21T16:54:32;2.10;;;1.50;;
14665;SDS011;7420;53.574;10.040;2022-09-21T16:57:00;2.28;;;1.40;;
14665;SDS011;7420;53.574;10.040;2022-09-21T16:59:27;1.95;;;1.45;;
14665;SDS011;7420;53.574;10.040;2022-09-21T17:01:53;3.22;;;1.73;;
14665;SDS011;7420;53.574;10.040;2022-09-21T17:04:23;4.75;;;1.95;;
14665;SDS011;7420;53.574;10.040;2022-09-21T17:06:50;2.95;;;1.60;;
14665;SDS011;7420;53.574;10.040;2022-09-21T17:09:17;2.33;;;1.67;;
14665;SDS011;7420;53.574;10.040;2022-09-21T17:11:45;2.63;;;1.85;;
14665;SDS011;7420;53.574;10.040;2022-09-21T17:14:11;3.70;;;1.52;;
14665;SDS011;7420;53.574;10.040;2022-09-21T17:16:40;3.25;;;2.30;;
14665;SDS011;7420;53.574;10.040;2022-09-21T17:19:08;3.63;;;2.17;;
14665;SDS011;7420;53.574;10.040;2022-09-21T17:21:33;2.65;;;1.98;;
14665;SDS011;7420;53.574;10.040;2022-09-21T17:23:59;5.43;;;2.78;;
14665;SDS011;7420;53.574;10.040;2022-09-21T17:26:24;6.13;;;2.85;;
14665;SDS011;7420;53.574;10.040;2022-09-21T17:28:50;3.00;;;2.03;;
14665;SDS011;7420;53.574;10.040;2022-09-21T17:31:17;2.97;;;1.90;;
14665;SDS011;7420;53.574;10.040;2022-09-21T17:33:47;6.32;;;2.20;;
14665;SDS011;7420;53.574;10.040;2022-09-21T17:36:14;6.20;;;2.58;;
14665;SDS011;7420;53.574;10.040;2022-09-21T17:38:40;4.10;;;2.30;;
14665;SDS011;7420;53.574;10.040;2022-09-21T17:44:10;5.57;;;2.22;;
14665;SDS011;7420;53.574;10.040;2022-09-21T17:46:50;3.78;;;2.10;;
14665;SDS011;7420;53.574;10.040;2022-09-21T17:49:22;3.30;;;2.30;;
14665;SDS011;7420;53.574;10.040;2022-09-21T17:51:47;4.90;;;2.60;;
14665;SDS011;7420;53.574;10.040;2022-09-21T17:54:32;4.15;;;2.30;;
14665;SDS011;7420;53.574;10.040;2022-09-21T17:59:34;4.75;;;2.65;;
14665;SDS011;7420;53.574;10.040;2022-09-21T18:02:01;5.20;;;2.53;;
14665;SDS011;7420;53.574;10.040;2022-09-21T18:04:30;8.18;;;2.90;;
14665;SDS011;7420;53.574;10.040;2022-09-21T18:06:58;5.07;;;2.58;;
14665;SDS011;7420;53.574;10.040;2022-09-21T18:09:24;5.25;;;2.70;;
14665;SDS011;7420;53.574;10.040;2022-09-21T18:11:54;7.07;;;2.97;;
14665;SDS011;7420;53.574;10.040;2022-09-21T18:22:39;6.43;;;3.95;;
14665;SDS011;7420;53.574;10.040;2022-09-21T18:25:14;6.25;;;4.03;;
14665;SDS011;7420;53.574;10.040;2022-09-21T18:27:45;11.27;;;7.43;;